METAR Data
IDs: Format: Raw Decoded Include TAF

Data at: 2121 UTC 18 Sep 2018

KFOE 182053Z 20011G20KT 10SM FEW065 34/19 A2986 RMK AO2 SLP099 T03440194 56019
KFOE 181953Z 22009G19KT 10SM FEW085 35/20 A2988 RMK AO2 SLP105 T03500200
KFOE 181853Z 23009G18KT 10SM SCT060 SCT075 SCT100 34/21 A2990 RMK AO2 SLP112 T03390206
KFOE 181753Z 22013G18KT 10SM CLR 33/21 A2992 RMK AO2 SLP119 T03330206 10339 20217 58009
KFOE 181653Z 21010KT 10SM CLR 32/22 A2994 RMK AO2 SLP128 T03220217
KFOE 181553Z 20008KT 10SM CLR 31/22 A2995 RMK AO2 SLP131 T03060217
KFOE 181453Z 20009KT 10SM CLR 29/22 A2995 RMK AO2 SLP130 T02890217 50000
KFOE 181353Z 19006KT 10SM CLR 26/22 A2996 RMK AO2 SLP135 T02610217
KFOE 181253Z 18005KT 9SM CLR 23/21 A2996 RMK AO2 SLP134 T02280211
KFOE 181153Z 19005KT 10SM CLR 22/21 A2995 RMK AO2 SLP130 T02220206 10239 20217 53002
KFOE 181053Z 20004KT 10SM CLR 22/21 A2995 RMK AO2 SLP128 T02220206
KFOE 180953Z AUTO 18005KT 10SM CLR 23/21 A2994 RMK AO2 SLP126 T02280211
KFOE 180853Z AUTO 18006KT 10SM CLR 23/21 A2994 RMK AO2 SLP128 T02330211 58006
KFOE 180753Z AUTO 17004KT 10SM CLR 22/21 A2996 RMK AO2 SLP131 T02220206
KFOE 180653Z AUTO 18004KT 10SM CLR 23/21 A2996 RMK AO2 SLP131 T02330211
KFOE 180553Z AUTO 17005KT 10SM CLR 24/21 A2996 RMK AO2 SLP134 T02390211 10306 20233 403330183 51003
KFOE 180453Z AUTO 17006KT 10SM CLR 23/21 A2996 RMK AO2 SLP132 T02330211
KFOE 180353Z AUTO 15005KT 10SM CLR 24/21 A2996 RMK AO2 SLP132 T02440211 TSNO
KFOE 180253Z 15006KT 10SM CLR 25/21 A2995 RMK AO2 SLP132 T02500206 53010
KFOE 180153Z 15005KT 10SM BKN095 26/21 A2994 RMK AO2 SLP128 T02610211
KFOE 180053Z 15005KT 10SM CLR 27/21 A2993 RMK AO2 SLP124 T02670206
KFOE 172353Z 17008KT 10SM BKN090 31/21 A2992 RMK AO2 SLP121 T03060206 10333 20306 55001
KFOE 172253Z 18009KT 10SM FEW090 32/21 A2992 RMK AO2 SLP119 T03170211
KFOE 172153Z 18009KT 10SM CLR 32/21 A2992 RMK AO2 SLP119 T03220206
KFOE 172053Z 18008KT 10SM FEW050 FEW080 32/22 A2992 RMK AO2 SLP121 T03220217 56017
KFOE 171953Z 18011KT 10SM FEW045 33/22 A2993 RMK AO2 SLP124 T03280217
KFOE 171853Z 21011KT 10SM FEW043 FEW060 BKN090 33/22 A2995 RMK AO2 SLP132 T03280217
KFOE 171753Z 23010G15KT 10SM BKN085 31/21 A2997 RMK AO2 SLP139 T03110211 10311 20189 58005
KFOE 171653Z 19011G15KT 10SM FEW070 SCT085 31/21 A2999 RMK AO2 SLP143 T03110211
KFOE 171553Z 20010KT 10SM OVC095 30/20 A3000 RMK AO2 SLP147 T03000200
KFOE 171453Z 17008KT 10SM CLR 27/19 A2999 RMK AO2 SLP145 T02720194 51006
KFOE 171353Z 17004KT 10SM BKN090 23/19 A2999 RMK AO2 SLP145 T02330194
KFOE 171253Z 13003KT 9SM CLR 19/18 A2999 RMK AO2 SLP145 T01890178
KFOE 171153Z 00000KT 10SM SCT070 19/18 A2997 RMK AO2 SLP140 T01890178 10211 20183 53002 $
KFOE 171053Z 00000KT 10SM CLR 19/18 A2997 RMK AO2 SLP136 T01890178 $
KFOE 170953Z AUTO 00000KT 10SM SCT085 19/18 A2996 RMK AO2 SLP135 T01940178 $